createdAt,value
2023-05-10T00:00:03.959Z,524.00
2023-05-10T00:01:04.008Z,523.00
2023-05-10T00:02:04.145Z,523.00
2023-05-10T00:03:04.175Z,520.00
2023-05-10T00:04:04.225Z,520.00
2023-05-10T00:05:04.211Z,520.00
2023-05-10T00:06:04.266Z,519.00
2023-05-10T00:07:04.322Z,518.00
2023-05-10T00:08:04.357Z,515.00
2023-05-10T00:09:04.437Z,514.00
2023-05-10T00:10:04.459Z,513.00
2023-05-10T00:11:04.501Z,515.00
2023-05-10T00:12:04.559Z,516.00
2023-05-10T00:13:04.642Z,517.00
2023-05-10T00:14:04.657Z,517.00
2023-05-10T00:15:04.712Z,517.00
2023-05-10T00:16:04.794Z,517.00
2023-05-10T00:17:04.815Z,516.00
2023-05-10T00:18:04.880Z,515.00
2023-05-10T00:19:04.925Z,512.00
2023-05-10T00:20:04.970Z,512.00
2023-05-10T00:21:05.015Z,511.00
2023-05-10T00:22:05.056Z,513.00
2023-05-10T00:23:05.146Z,516.00
2023-05-10T00:24:05.154Z,518.00
2023-05-10T00:25:05.199Z,517.00
2023-05-10T00:26:05.242Z,515.00
2023-05-10T00:27:05.290Z,514.00
2023-05-10T00:28:05.371Z,513.00
2023-05-10T00:29:05.396Z,514.00
2023-05-10T00:30:05.457Z,513.00
2023-05-10T00:31:05.514Z,512.00
2023-05-10T00:32:05.632Z,514.00
2023-05-10T00:33:05.651Z,513.00
2023-05-10T00:34:05.652Z,514.00
2023-05-10T00:35:05.698Z,514.00
2023-05-10T00:36:05.744Z,516.00
2023-05-10T00:37:05.793Z,516.00
2023-05-10T00:38:05.851Z,515.00
2023-05-10T00:39:05.901Z,515.00
2023-05-10T00:40:05.932Z,517.00
2023-05-10T00:41:05.995Z,519.00
2023-05-10T00:42:06.061Z,520.00
2023-05-10T00:43:06.090Z,520.00
2023-05-10T00:44:06.131Z,518.00
2023-05-10T00:45:06.183Z,516.00
2023-05-10T00:46:06.246Z,518.00
2023-05-10T00:47:06.277Z,518.00
2023-05-10T00:48:06.331Z,519.00
2023-05-10T00:49:06.369Z,518.00
2023-05-10T00:50:06.426Z,521.00
2023-05-10T00:51:06.474Z,521.00
2023-05-10T00:52:06.519Z,519.00
2023-05-10T00:53:06.574Z,518.00
2023-05-10T00:54:06.638Z,516.00
2023-05-10T00:55:06.699Z,513.00
2023-05-10T00:56:06.730Z,514.00
2023-05-10T00:57:06.818Z,513.00
2023-05-10T00:58:06.840Z,513.00
2023-05-10T00:59:06.901Z,514.00
2023-05-10T01:00:06.973Z,516.00
2023-05-10T01:01:07.023Z,516.00
2023-05-10T01:02:07.092Z,514.00
2023-05-10T01:03:07.274Z,511.00
2023-05-10T01:04:07.176Z,512.00
2023-05-10T01:05:07.232Z,514.00
2023-05-10T01:06:07.285Z,513.00
2023-05-10T01:07:07.342Z,512.00
2023-05-10T01:08:07.401Z,513.00
2023-05-10T01:09:07.466Z,509.00
2023-05-10T01:10:07.526Z,509.00
2023-05-10T01:11:07.589Z,507.00
2023-05-10T01:12:07.658Z,506.00
2023-05-10T01:13:07.721Z,506.00
2023-05-10T01:14:07.783Z,509.00
2023-05-10T01:15:07.804Z,512.00
2023-05-10T01:16:07.960Z,513.00
2023-05-10T01:17:07.908Z,513.00
2023-05-10T01:18:07.968Z,514.00
2023-05-10T01:19:08.027Z,516.00
2023-05-10T01:20:08.084Z,514.00
2023-05-10T01:21:08.132Z,513.00
2023-05-10T01:22:08.194Z,514.00
2023-05-10T01:23:08.250Z,517.00
2023-05-10T01:24:08.318Z,515.00
2023-05-10T01:25:08.375Z,515.00
2023-05-10T01:26:08.432Z,513.00
2023-05-10T01:27:08.531Z,515.00
2023-05-10T01:28:08.543Z,517.00
2023-05-10T01:29:08.642Z,516.00
2023-05-10T01:30:14.655Z,518.00
2023-05-10T01:31:09.689Z,518.00
2023-05-10T01:32:08.669Z,518.00
2023-05-10T01:33:08.714Z,518.00
2023-05-10T01:34:08.724Z,517.00
2023-05-10T01:35:08.709Z,518.00
2023-05-10T01:36:08.718Z,518.00
2023-05-10T01:37:08.736Z,517.00
2023-05-10T01:38:08.744Z,517.00
2023-05-10T01:39:08.785Z,520.00
2023-05-10T01:40:08.778Z,521.00
2023-05-10T01:41:08.799Z,518.00
2023-05-10T01:42:08.830Z,517.00
2023-05-10T01:43:08.807Z,517.00
2023-05-10T01:44:08.852Z,516.00
2023-05-10T01:45:08.842Z,516.00
2023-05-10T01:46:08.905Z,513.00
2023-05-10T01:47:08.914Z,514.00
2023-05-10T01:48:08.979Z,514.00
2023-05-10T01:49:09.016Z,514.00
2023-05-10T01:50:09.065Z,517.00
2023-05-10T01:51:09.121Z,517.00
2023-05-10T01:52:09.183Z,519.00
2023-05-10T01:53:09.229Z,518.00
2023-05-10T01:54:09.304Z,519.00
2023-05-10T01:55:09.336Z,518.00
2023-05-10T01:56:09.382Z,514.00
2023-05-10T01:57:09.449Z,513.00
2023-05-10T01:58:09.493Z,514.00
2023-05-10T01:59:09.569Z,515.00
2023-05-10T02:00:09.615Z,516.00
2023-05-10T02:01:09.722Z,517.00
2023-05-10T02:02:09.721Z,515.00
2023-05-10T02:03:09.941Z,518.00
2023-05-10T02:04:09.925Z,519.00
2023-05-10T02:05:09.887Z,521.00
2023-05-10T02:06:09.938Z,521.00
2023-05-10T02:07:09.996Z,520.00
2023-05-10T02:08:10.051Z,521.00
2023-05-10T02:09:10.125Z,519.00
2023-05-10T02:10:10.118Z,518.00
2023-05-10T02:11:10.113Z,521.00
2023-05-10T02:12:10.128Z,523.00
2023-05-10T02:13:10.194Z,521.00
2023-05-10T02:14:10.158Z,520.00
2023-05-10T02:15:10.172Z,517.00
2023-05-10T02:16:10.197Z,517.00
2023-05-10T02:17:10.191Z,517.00
2023-05-10T02:18:10.233Z,517.00
2023-05-10T02:19:10.217Z,516.00
2023-05-10T02:20:10.220Z,516.00
2023-05-10T02:21:10.240Z,516.00
2023-05-10T02:22:10.231Z,517.00
2023-05-10T02:23:10.257Z,515.00
2023-05-10T02:24:10.338Z,513.00
2023-05-10T02:25:10.383Z,510.00
2023-05-10T02:26:10.444Z,511.00
2023-05-10T02:27:10.496Z,511.00
2023-05-10T02:28:10.555Z,513.00
2023-05-10T02:29:10.615Z,513.00
2023-05-10T02:30:10.654Z,514.00
2023-05-10T02:31:10.729Z,518.00
2023-05-10T02:32:10.917Z,519.00
2023-05-10T02:33:10.829Z,519.00
2023-05-10T02:34:10.897Z,519.00
2023-05-10T02:35:10.952Z,518.00
2023-05-10T02:36:11.006Z,518.00
2023-05-10T02:37:11.087Z,518.00
2023-05-10T02:38:11.130Z,516.00
2023-05-10T02:39:11.207Z,517.00
2023-05-10T02:40:11.251Z,519.00
2023-05-10T02:41:11.326Z,520.00
2023-05-10T02:42:11.389Z,520.00
2023-05-10T02:43:11.442Z,520.00
2023-05-10T02:44:11.520Z,519.00
2023-05-10T02:45:11.569Z,519.00
2023-05-10T02:46:11.667Z,522.00
2023-05-10T02:47:11.696Z,521.00
2023-05-10T02:48:11.782Z,522.00
2023-05-10T02:49:11.831Z,522.00
2023-05-10T02:50:11.897Z,523.00
2023-05-10T02:51:11.953Z,523.00
2023-05-10T02:52:12.019Z,525.00
2023-05-10T02:53:12.065Z,524.00
2023-05-10T02:54:12.113Z,522.00
2023-05-10T02:55:12.166Z,521.00
2023-05-10T02:56:12.249Z,521.00
2023-05-10T02:57:12.290Z,519.00
2023-05-10T02:58:12.342Z,519.00
2023-05-10T02:59:12.419Z,519.00
2023-05-10T03:00:12.458Z,519.00
2023-05-10T03:01:12.550Z,516.00
2023-05-10T03:02:12.570Z,511.00
2023-05-10T03:03:12.628Z,507.00
2023-05-10T03:04:12.677Z,501.00
2023-05-10T03:05:12.648Z,497.00
2023-05-10T03:06:12.650Z,493.00
2023-05-10T03:07:12.671Z,493.00
2023-05-10T03:08:12.669Z,492.00
2023-05-10T03:09:12.687Z,488.00
2023-05-10T03:10:12.696Z,485.00
2023-05-10T03:11:12.707Z,482.00
2023-05-10T03:12:12.723Z,482.00
2023-05-10T03:13:12.830Z,480.00
2023-05-10T03:14:12.822Z,476.00
2023-05-10T03:15:12.888Z,471.00
2023-05-10T03:16:12.987Z,468.00
2023-05-10T03:17:13.042Z,468.00
2023-05-10T03:18:13.093Z,468.00
2023-05-10T03:19:13.162Z,467.00
2023-05-10T03:20:13.242Z,467.00
2023-05-10T03:21:13.303Z,466.00
2023-05-10T03:22:13.392Z,465.00
2023-05-10T03:23:13.403Z,463.00
2023-05-10T03:24:13.445Z,464.00
2023-05-10T03:25:13.463Z,462.00
2023-05-10T03:26:13.500Z,461.00
2023-05-10T03:27:13.536Z,461.00
2023-05-10T03:28:13.548Z,459.00
2023-05-10T03:29:13.574Z,458.00
2023-05-10T03:30:13.631Z,455.00
2023-05-10T03:31:13.747Z,455.00
2023-05-10T03:32:13.663Z,453.00
2023-05-10T03:33:13.713Z,454.00
2023-05-10T03:34:13.730Z,455.00
2023-05-10T03:35:13.773Z,452.00
2023-05-10T03:36:13.797Z,453.00
2023-05-10T03:37:13.849Z,454.00
2023-05-10T03:38:13.876Z,452.00
2023-05-10T03:39:13.910Z,454.00
2023-05-10T03:40:14.039Z,455.00
2023-05-10T03:41:13.990Z,457.00
2023-05-10T03:42:14.025Z,458.00
2023-05-10T03:43:14.061Z,457.00
2023-05-10T03:44:14.110Z,457.00
2023-05-10T03:45:14.147Z,455.00
2023-05-10T03:46:14.210Z,452.00
2023-05-10T03:47:14.226Z,452.00
2023-05-10T03:48:14.328Z,455.00
2023-05-10T03:49:14.359Z,459.00
2023-05-10T03:50:14.438Z,457.00
2023-05-10T03:51:14.428Z,457.00
2023-05-10T03:52:14.446Z,456.00
2023-05-10T03:53:14.496Z,458.00
2023-05-10T03:54:14.516Z,459.00
2023-05-10T03:55:14.546Z,460.00
2023-05-10T03:56:14.587Z,458.00
2023-05-10T03:57:14.610Z,455.00
2023-05-10T03:58:14.648Z,453.00
2023-05-10T03:59:14.682Z,453.00
2023-05-10T04:00:14.921Z,451.00
2023-05-10T04:01:14.750Z,450.00
2023-05-10T04:02:14.808Z,450.00
2023-05-10T04:03:14.924Z,452.00
2023-05-10T04:04:14.884Z,453.00
2023-05-10T04:05:14.878Z,453.00
2023-05-10T04:06:14.947Z,454.00
2023-05-10T04:07:14.953Z,455.00
2023-05-10T04:08:14.984Z,456.00
2023-05-10T04:09:15.020Z,457.00
2023-05-10T04:10:15.164Z,458.00
2023-05-10T04:11:15.085Z,455.00
2023-05-10T04:12:15.115Z,455.00
2023-05-10T04:13:15.199Z,456.00
2023-05-10T04:14:15.202Z,456.00
2023-05-10T04:15:15.219Z,455.00
2023-05-10T04:16:15.289Z,453.00
2023-05-10T04:17:15.385Z,452.00
2023-05-10T04:18:15.345Z,450.00
2023-05-10T04:19:15.389Z,451.00
2023-05-10T04:20:15.536Z,452.00
2023-05-10T04:21:15.488Z,453.00
2023-05-10T04:22:15.500Z,455.00
2023-05-10T04:23:15.530Z,455.00
2023-05-10T04:24:15.572Z,452.00
2023-05-10T04:25:15.610Z,451.00
2023-05-10T04:26:15.640Z,449.00
2023-05-10T04:27:15.661Z,452.00
2023-05-10T04:28:15.698Z,450.00
2023-05-10T04:29:15.746Z,451.00
2023-05-10T04:30:15.997Z,450.00
2023-05-10T04:31:15.824Z,449.00
2023-05-10T04:32:15.848Z,450.00
2023-05-10T04:33:15.875Z,451.00
2023-05-10T04:34:15.924Z,449.00
2023-05-10T04:35:15.985Z,450.00
2023-05-10T04:36:15.986Z,453.00
2023-05-10T04:37:16.028Z,455.00
2023-05-10T04:38:16.064Z,454.00
2023-05-10T04:39:16.087Z,453.00
2023-05-10T04:40:16.267Z,452.00
2023-05-10T04:41:16.132Z,451.00
2023-05-10T04:42:16.164Z,450.00
2023-05-10T04:43:16.223Z,448.00
2023-05-10T04:44:16.228Z,449.00
2023-05-10T04:45:16.243Z,449.00
2023-05-10T04:46:16.368Z,451.00
2023-05-10T04:47:16.301Z,451.00
2023-05-10T04:48:16.343Z,452.00
2023-05-10T04:49:16.367Z,452.00
2023-05-10T04:50:16.595Z,456.00
2023-05-10T04:51:16.431Z,457.00
2023-05-10T04:52:16.447Z,459.00
2023-05-10T04:53:16.464Z,461.00
2023-05-10T04:54:16.489Z,462.00
2023-05-10T04:55:16.523Z,462.00
2023-05-10T04:56:16.533Z,462.00
2023-05-10T04:57:16.569Z,462.00
2023-05-10T04:58:16.576Z,461.00
2023-05-10T04:59:16.614Z,462.00
2023-05-10T05:00:16.788Z,461.00
2023-05-10T05:01:16.648Z,460.00
2023-05-10T05:02:16.654Z,463.00
2023-05-10T05:03:16.751Z,463.00
2023-05-10T05:04:16.699Z,464.00
2023-05-10T05:05:16.715Z,462.00
2023-05-10T05:06:16.763Z,461.00
2023-05-10T05:07:16.771Z,461.00
2023-05-10T05:08:16.768Z,462.00
2023-05-10T05:09:16.791Z,460.00
2023-05-10T05:10:17.072Z,459.00
2023-05-10T05:11:16.894Z,459.00
2023-05-10T05:12:16.916Z,460.00
2023-05-10T05:13:16.975Z,460.00
2023-05-10T05:14:17.024Z,458.00
2023-05-10T05:15:17.031Z,454.00
2023-05-10T05:16:17.059Z,454.00
2023-05-10T05:17:17.084Z,454.00
2023-05-10T05:18:17.124Z,453.00
2023-05-10T05:19:17.166Z,453.00
2023-05-10T05:20:17.631Z,453.00
2023-05-10T05:21:17.255Z,450.00
2023-05-10T05:22:19.474Z,448.00
2023-05-10T05:23:17.365Z,448.00
2023-05-10T05:24:17.417Z,447.00
2023-05-10T05:25:17.406Z,449.00
2023-05-10T05:26:17.432Z,450.00
2023-05-10T05:27:17.462Z,451.00
2023-05-10T05:28:17.478Z,450.00
2023-05-10T05:29:17.533Z,450.00
2023-05-10T05:30:17.684Z,447.00
2023-05-10T05:31:17.619Z,447.00
2023-05-10T05:32:17.592Z,449.00
2023-05-10T05:33:17.635Z,452.00
2023-05-10T05:34:17.622Z,454.00
2023-05-10T05:35:17.857Z,462.00
2023-05-10T05:36:17.696Z,474.00
2023-05-10T05:37:17.708Z,481.00
2023-05-10T05:38:17.760Z,486.00
2023-05-10T05:39:17.778Z,498.00
2023-05-10T05:40:17.767Z,543.00
2023-05-10T05:41:17.822Z,564.00
2023-05-10T05:42:17.799Z,571.00
2023-05-10T05:43:17.802Z,581.00
2023-05-10T05:44:17.836Z,609.00
2023-05-10T05:45:18.218Z,632.00
2023-05-10T05:46:17.898Z,659.00
2023-05-10T05:47:17.881Z,665.00
2023-05-10T05:48:17.894Z,645.00
2023-05-10T05:49:17.923Z,632.00
2023-05-10T05:50:17.921Z,632.00
2023-05-10T05:51:17.956Z,658.00
2023-05-10T05:52:17.962Z,691.00
2023-05-10T05:53:18.106Z,669.00
2023-05-10T05:54:18.111Z,660.00
2023-05-10T05:55:18.228Z,651.00
2023-05-10T05:56:18.104Z,640.00
2023-05-10T05:57:18.147Z,631.00
2023-05-10T05:58:18.172Z,610.00
2023-05-10T05:59:18.206Z,576.00
2023-05-10T06:00:18.219Z,584.00
2023-05-10T06:01:18.316Z,572.00
2023-05-10T06:02:18.302Z,573.00
2023-05-10T06:03:18.391Z,574.00
2023-05-10T06:05:18.555Z,576.00
2023-05-10T06:06:18.392Z,572.00
2023-05-10T06:07:18.423Z,560.00
2023-05-10T06:08:18.459Z,538.00
2023-05-10T06:09:18.476Z,524.00
2023-05-10T06:10:18.495Z,521.00
2023-05-10T06:11:18.535Z,526.00
2023-05-10T06:12:18.575Z,535.00
2023-05-10T06:13:18.653Z,538.00
2023-05-10T06:14:18.715Z,538.00
2023-05-10T06:15:18.909Z,535.00
2023-05-10T06:16:18.893Z,533.00
2023-05-10T06:17:18.953Z,527.00
2023-05-10T06:18:19.027Z,527.00
2023-05-10T06:19:19.256Z,536.00
2023-05-10T06:20:19.185Z,546.00
2023-05-10T06:21:19.270Z,550.00
2023-05-10T06:22:19.304Z,547.00
2023-05-10T06:23:19.336Z,547.00
2023-05-10T06:24:19.391Z,550.00
2023-05-10T06:25:19.542Z,546.00
2023-05-10T06:26:19.461Z,541.00
2023-05-10T06:27:19.500Z,536.00
2023-05-10T06:28:19.534Z,534.00
2023-05-10T06:29:19.594Z,534.00
2023-05-10T06:30:19.601Z,530.00
2023-05-10T06:31:19.695Z,526.00
2023-05-10T06:32:19.692Z,524.00
2023-05-10T06:33:19.727Z,525.00
2023-05-10T06:34:19.786Z,522.00
2023-05-10T06:35:19.939Z,518.00
2023-05-10T06:36:19.852Z,512.00
2023-05-10T06:37:19.906Z,510.00
2023-05-10T06:38:19.979Z,509.00
2023-05-10T06:39:19.999Z,511.00
2023-05-10T06:40:20.027Z,513.00
2023-05-10T06:41:20.442Z,514.00
2023-05-10T06:42:20.103Z,517.00
2023-05-10T06:43:20.169Z,608.00
2023-05-10T06:44:20.193Z,612.00
2023-05-10T06:45:20.367Z,632.00
2023-05-10T06:46:20.300Z,632.00
2023-05-10T06:47:20.311Z,628.00
2023-05-10T06:48:20.423Z,598.00
2023-05-10T06:49:20.398Z,595.00
2023-05-10T06:50:20.514Z,602.00
2023-05-10T06:51:20.578Z,602.00
2023-05-10T06:52:20.655Z,594.00
2023-05-10T06:53:20.767Z,594.00
2023-05-10T06:54:20.835Z,590.00
2023-05-10T06:55:20.943Z,579.00
2023-05-10T06:56:21.023Z,550.00
2023-05-10T06:57:31.429Z,537.00
2023-05-10T06:58:22.171Z,525.00
2023-05-10T06:59:21.202Z,514.00
2023-05-10T07:00:21.525Z,511.00
2023-05-10T07:01:21.323Z,511.00
2023-05-10T07:02:21.376Z,511.00
2023-05-10T07:03:21.362Z,513.00
2023-05-10T07:04:21.387Z,521.00
2023-05-10T07:05:21.583Z,522.00
2023-05-10T07:06:32.285Z,523.00
2023-05-10T07:07:22.451Z,522.00
2023-05-10T07:08:21.491Z,522.00
2023-05-10T07:09:21.537Z,514.00
2023-05-10T07:10:21.567Z,517.00
2023-05-10T07:11:21.632Z,521.00
2023-05-10T07:12:21.685Z,523.00
2023-05-10T07:13:21.827Z,521.00
2023-05-10T07:14:21.713Z,514.00
2023-05-10T07:15:21.752Z,512.00
2023-05-10T07:16:21.796Z,512.00
2023-05-10T07:17:21.852Z,510.00
2023-05-10T07:18:21.938Z,509.00
2023-05-10T07:19:21.905Z,511.00
2023-05-10T07:20:22.029Z,512.00
2023-05-10T07:21:22.045Z,517.00
2023-05-10T07:22:22.013Z,516.00
2023-05-10T07:23:22.049Z,516.00
2023-05-10T07:24:22.102Z,515.00
2023-05-10T07:25:22.146Z,514.00
2023-05-10T07:26:22.179Z,515.00
2023-05-10T07:27:22.265Z,514.00
2023-05-10T07:28:22.285Z,512.00
2023-05-10T07:29:22.315Z,510.00
2023-05-10T07:30:22.386Z,509.00
2023-05-10T07:31:22.394Z,513.00
2023-05-10T07:32:22.545Z,514.00
2023-05-10T07:33:22.520Z,519.00
2023-05-10T07:34:22.505Z,520.00
2023-05-10T07:35:22.564Z,523.00
2023-05-10T07:36:22.589Z,530.00
2023-05-10T07:37:22.662Z,555.00
2023-05-10T07:38:22.700Z,556.00
2023-05-10T07:39:27.101Z,561.00
2023-05-10T07:40:23.854Z,588.00
2023-05-10T07:41:22.851Z,610.00
2023-05-10T07:42:22.881Z,623.00
2023-05-10T07:43:22.911Z,641.00
2023-05-10T07:44:22.942Z,654.00
2023-05-10T07:45:22.979Z,658.00
2023-05-10T07:46:23.117Z,658.00
2023-05-10T07:47:23.056Z,644.00
2023-05-10T07:48:23.079Z,624.00
2023-05-10T07:49:23.089Z,610.00
2023-05-10T07:50:23.124Z,591.00
2023-05-10T07:51:23.170Z,591.00
2023-05-10T07:52:23.182Z,588.00
2023-05-10T07:53:23.213Z,583.00
2023-05-10T07:54:23.250Z,576.00
2023-05-10T07:55:23.311Z,570.00
2023-05-10T07:56:23.325Z,560.00
2023-05-10T07:57:23.350Z,553.00
2023-05-10T07:58:23.390Z,550.00
2023-05-10T07:59:23.433Z,550.00
2023-05-10T08:00:23.509Z,546.00
2023-05-10T08:01:23.574Z,540.00
2023-05-10T08:02:23.698Z,535.00
2023-05-10T08:03:23.794Z,528.00
2023-05-10T08:04:23.813Z,524.00
2023-05-10T08:05:23.812Z,520.00
2023-05-10T08:06:23.839Z,514.00
2023-05-10T08:07:23.873Z,511.00
2023-05-10T08:08:23.902Z,510.00
2023-05-10T08:09:23.928Z,508.00
2023-05-10T08:10:23.975Z,505.00
2023-05-10T08:11:24.027Z,503.00
2023-05-10T08:12:24.023Z,501.00
2023-05-10T08:13:24.062Z,499.00
2023-05-10T08:14:24.088Z,498.00
2023-05-10T08:15:24.166Z,496.00
2023-05-10T08:16:24.186Z,492.00
2023-05-10T08:17:24.780Z,491.00
2023-05-10T08:18:24.217Z,490.00
2023-05-10T08:19:24.225Z,487.00
2023-05-10T08:20:24.247Z,489.00
2023-05-10T08:21:24.284Z,488.00
2023-05-10T08:22:24.300Z,483.00
2023-05-10T08:23:24.335Z,481.00
2023-05-10T08:24:24.367Z,480.00
2023-05-10T08:25:24.391Z,478.00
2023-05-10T08:26:24.414Z,476.00
2023-05-10T08:27:24.433Z,477.00
2023-05-10T08:28:24.481Z,476.00
2023-05-10T08:29:25.374Z,475.00
2023-05-10T08:30:24.527Z,471.00
2023-05-10T08:31:24.587Z,469.00
2023-05-10T08:32:24.628Z,468.00
2023-05-10T08:33:24.597Z,471.00
2023-05-10T08:34:25.036Z,475.00
2023-05-10T08:35:24.648Z,492.00
2023-05-10T08:36:24.664Z,519.00
2023-05-10T08:37:24.715Z,524.00
2023-05-10T08:38:24.696Z,534.00
2023-05-10T08:39:30.316Z,561.00
2023-05-10T08:40:25.783Z,581.00
2023-05-10T08:41:24.764Z,595.00
2023-05-10T08:42:24.777Z,604.00
2023-05-10T08:43:24.811Z,615.00
2023-05-10T08:44:24.813Z,631.00
2023-05-10T08:45:24.839Z,640.00
2023-05-10T08:46:24.901Z,678.00
2023-05-10T08:47:24.909Z,689.00
2023-05-10T08:48:24.924Z,745.00
2023-05-10T08:49:24.907Z,775.00
2023-05-10T08:50:24.930Z,788.00
2023-05-10T08:51:24.937Z,798.00
2023-05-10T08:52:24.949Z,819.00
2023-05-10T08:53:24.972Z,859.00
2023-05-10T08:54:24.986Z,904.00
2023-05-10T08:55:25.009Z,909.00
2023-05-10T08:56:25.059Z,919.00
2023-05-10T08:57:25.057Z,958.00
2023-05-10T08:58:25.065Z,968.00
2023-05-10T08:59:25.095Z,983.00
2023-05-10T09:00:25.119Z,1033.00
2023-05-10T09:01:25.227Z,1053.00
2023-05-10T09:02:25.166Z,1060.00
2023-05-10T09:03:25.202Z,1057.00
2023-05-10T09:04:25.319Z,1070.00
2023-05-10T09:05:25.294Z,1086.00
2023-05-10T09:06:25.220Z,1107.00
2023-05-10T09:07:25.266Z,1110.00
2023-05-10T09:08:25.365Z,1113.00
2023-05-10T09:09:25.439Z,1120.00
2023-05-10T09:10:25.535Z,1131.00
2023-05-10T09:11:25.610Z,1131.00
2023-05-10T09:12:25.714Z,1127.00
2023-05-10T09:13:25.798Z,1130.00
2023-05-10T09:14:25.956Z,1135.00
2023-05-10T09:15:25.961Z,1140.00
2023-05-10T09:16:26.130Z,1141.00
2023-05-10T09:17:26.258Z,1139.00
2023-05-10T09:18:28.054Z,1133.00
2023-05-10T09:19:26.289Z,1121.00
2023-05-10T09:20:26.389Z,1119.00
2023-05-10T09:21:26.470Z,1119.00
2023-05-10T09:22:26.556Z,1121.00
2023-05-10T09:23:26.649Z,1117.00
2023-05-10T09:24:26.717Z,1103.00
2023-05-10T09:25:26.791Z,1103.00
2023-05-10T09:26:26.860Z,1103.00
2023-05-10T09:27:26.945Z,1040.00
2023-05-10T09:28:27.014Z,1015.00
2023-05-10T09:29:27.112Z,991.00
2023-05-10T09:30:27.181Z,994.00
2023-05-10T09:31:27.404Z,1008.00
2023-05-10T09:32:27.378Z,1006.00
2023-05-10T09:33:27.426Z,1003.00
2023-05-10T09:34:27.522Z,997.00
2023-05-10T09:35:29.451Z,987.00
2023-05-10T09:36:27.541Z,976.00
2023-05-10T09:37:27.575Z,968.00
2023-05-10T09:38:27.645Z,956.00
2023-05-10T09:39:27.740Z,945.00
2023-05-10T09:40:27.804Z,930.00
2023-05-10T09:41:27.880Z,919.00
2023-05-10T09:42:27.886Z,913.00
2023-05-10T09:43:27.918Z,905.00
2023-05-10T09:44:27.941Z,896.00
2023-05-10T09:45:27.942Z,887.00
2023-05-10T09:46:28.006Z,886.00
2023-05-10T09:47:28.046Z,878.00
2023-05-10T09:48:27.973Z,855.00
2023-05-10T09:49:28.006Z,846.00
2023-05-10T09:50:27.996Z,839.00
2023-05-10T09:51:28.037Z,832.00
2023-05-10T09:52:28.037Z,835.00
2023-05-10T09:53:28.066Z,836.00
2023-05-10T09:54:28.084Z,830.00
2023-05-10T09:55:28.181Z,829.00
2023-05-10T09:56:28.258Z,822.00
2023-05-10T09:57:28.341Z,809.00
2023-05-10T09:58:28.397Z,801.00
2023-05-10T09:59:28.490Z,802.00
2023-05-10T10:00:28.564Z,803.00
2023-05-10T10:01:28.659Z,798.00
2023-05-10T10:02:28.679Z,798.00
2023-05-10T10:03:30.270Z,797.00
2023-05-10T10:04:28.766Z,793.00
2023-05-10T10:05:28.739Z,792.00
2023-05-10T10:06:30.358Z,790.00
2023-05-10T10:07:28.778Z,782.00
2023-05-10T10:08:28.813Z,770.00
2023-05-10T10:09:28.838Z,767.00
2023-05-10T10:10:28.937Z,772.00
2023-05-10T10:11:28.886Z,779.00
2023-05-10T10:12:28.956Z,783.00
2023-05-10T10:13:29.028Z,787.00
2023-05-10T10:14:29.104Z,790.00
2023-05-10T10:15:29.249Z,792.00
2023-05-10T10:16:29.292Z,785.00
2023-05-10T10:17:29.359Z,781.00
2023-05-10T10:18:29.364Z,779.00
2023-05-10T10:19:29.351Z,778.00
2023-05-10T10:20:29.386Z,779.00
2023-05-10T10:21:29.405Z,780.00
2023-05-10T10:23:48.497Z,781.00
2023-05-10T10:24:48.504Z,776.00
2023-05-10T10:25:48.495Z,774.00
2023-05-10T10:26:48.490Z,776.00
2023-05-10T10:27:48.499Z,789.00
2023-05-10T10:28:48.497Z,798.00
2023-05-10T10:29:48.499Z,802.00
2023-05-10T10:30:48.510Z,802.00
2023-05-10T10:31:48.560Z,803.00
2023-05-10T10:32:48.514Z,803.00
2023-05-10T10:33:48.571Z,804.00
2023-05-10T10:34:48.511Z,808.00
2023-05-10T10:35:48.539Z,813.00
2023-05-10T10:36:48.513Z,816.00
2023-05-10T10:37:48.534Z,821.00
2023-05-10T10:38:48.528Z,824.00
2023-05-10T10:39:48.513Z,828.00
2023-05-10T10:40:48.539Z,826.00
2023-05-10T10:41:48.547Z,827.00
2023-05-10T10:42:48.551Z,826.00
2023-05-10T10:43:48.564Z,820.00
2023-05-10T10:44:48.553Z,811.00
2023-05-10T10:45:48.577Z,816.00
2023-05-10T10:46:48.621Z,828.00
2023-05-10T10:47:48.599Z,847.00
2023-05-10T10:48:48.577Z,852.00
2023-05-10T10:49:48.578Z,858.00
2023-05-10T10:50:48.590Z,861.00
2023-05-10T10:51:48.587Z,861.00
2023-05-10T10:52:48.624Z,860.00
2023-05-10T10:53:48.619Z,854.00
2023-05-10T10:54:48.613Z,843.00
2023-05-10T10:55:48.646Z,830.00
2023-05-10T10:56:48.649Z,818.00
2023-05-10T10:57:48.673Z,814.00
2023-05-10T10:58:48.688Z,817.00
2023-05-10T10:59:48.704Z,820.00
2023-05-10T11:00:48.742Z,824.00
2023-05-10T11:01:48.706Z,827.00
2023-05-10T11:02:48.737Z,833.00
2023-05-10T11:03:48.739Z,834.00
2023-05-10T11:04:48.763Z,831.00
2023-05-10T11:05:48.752Z,812.00
2023-05-10T11:06:48.746Z,807.00
2023-05-10T11:07:48.762Z,803.00
2023-05-10T11:08:48.771Z,821.00
2023-05-10T11:09:48.778Z,826.00
2023-05-10T11:10:48.786Z,794.00
2023-05-10T11:11:48.817Z,811.00
2023-05-10T11:12:48.796Z,813.00
2023-05-10T11:13:50.852Z,804.00
2023-05-10T11:14:49.028Z,798.00
2023-05-10T11:15:49.114Z,792.00
2023-05-10T11:16:49.132Z,789.00
2023-05-10T11:17:49.216Z,782.00
2023-05-10T11:18:50.341Z,790.00
2023-05-10T11:19:49.215Z,795.00
2023-05-10T11:20:49.227Z,799.00
2023-05-10T11:21:49.312Z,808.00
2023-05-10T11:22:49.337Z,809.00
2023-05-10T11:23:49.304Z,812.00
2023-05-10T11:24:50.209Z,822.00
2023-05-10T11:25:49.372Z,831.00
2023-05-10T11:26:49.376Z,816.00
2023-05-10T11:27:49.384Z,793.00
2023-05-10T11:28:49.400Z,772.00
2023-05-10T11:29:49.401Z,756.00
2023-05-10T11:30:49.479Z,715.00
2023-05-10T11:31:49.500Z,698.00
2023-05-10T11:32:49.449Z,684.00
2023-05-10T11:33:49.429Z,674.00
2023-05-10T11:34:49.425Z,666.00
2023-05-10T11:35:49.438Z,662.00
2023-05-10T11:36:49.458Z,647.00
2023-05-10T11:37:49.461Z,639.00
2023-05-10T11:38:49.484Z,624.00
2023-05-10T11:39:49.492Z,611.00
2023-05-10T11:40:49.505Z,604.00
2023-05-10T11:41:49.509Z,599.00
2023-05-10T11:42:49.540Z,607.00
2023-05-10T11:43:49.546Z,615.00
2023-05-10T11:44:49.540Z,620.00
2023-05-10T11:45:49.585Z,629.00
2023-05-10T11:46:49.642Z,631.00
2023-05-10T11:47:49.620Z,634.00
2023-05-10T11:48:49.584Z,635.00
2023-05-10T11:49:49.589Z,635.00
2023-05-10T11:50:49.597Z,635.00
2023-05-10T11:51:49.614Z,634.00
2023-05-10T11:52:49.610Z,640.00
2023-05-10T11:53:49.625Z,641.00
2023-05-10T11:54:49.627Z,646.00
2023-05-10T11:55:49.630Z,650.00
2023-05-10T11:56:49.629Z,650.00
2023-05-10T11:57:49.635Z,647.00
2023-05-10T11:58:49.650Z,643.00
2023-05-10T11:59:49.656Z,642.00
2023-05-10T12:00:49.684Z,636.00
2023-05-10T12:01:49.674Z,638.00
2023-05-10T12:02:49.830Z,634.00
2023-05-10T12:03:49.770Z,634.00
2023-05-10T12:04:49.740Z,636.00
2023-05-10T12:05:49.714Z,638.00
2023-05-10T12:06:49.727Z,642.00
2023-05-10T12:07:49.729Z,641.00
2023-05-10T12:08:49.735Z,640.00
2023-05-10T12:09:49.751Z,644.00
2023-05-10T12:10:49.766Z,644.00
2023-05-10T12:11:49.772Z,645.00
2023-05-10T12:12:49.805Z,649.00
2023-05-10T12:13:49.798Z,652.00
2023-05-10T12:14:49.806Z,656.00
2023-05-10T12:15:49.800Z,656.00
2023-05-10T12:16:49.830Z,654.00
2023-05-10T12:17:49.884Z,652.00
2023-05-10T12:18:49.959Z,653.00
2023-05-10T12:19:49.834Z,654.00
2023-05-10T12:20:49.826Z,655.00
2023-05-10T12:21:49.841Z,654.00
2023-05-10T12:22:49.838Z,654.00
2023-05-10T12:23:49.844Z,654.00
2023-05-10T12:24:49.851Z,655.00
2023-05-10T12:25:49.850Z,655.00
2023-05-10T12:26:49.851Z,651.00
2023-05-10T12:27:49.856Z,648.00
2023-05-10T12:28:49.859Z,646.00
2023-05-10T12:29:49.893Z,645.00